Weather at Area Of Fire And Rescue Force Heliport

Public forecast

Using degrees Celsius for public forecast. Weather courtesy of forecast.io.

Closest aviation weather report (METAR) to Area Of Fire And Rescue Force Heliport

Report is more than 6 hours old.

Closest report is Vodochody Airport, 8.8 nm (16.4 km) SSW. Retrieved 2020/11/27 12:00 UTC (1 day ago):

LKVO 271200Z 26003KT 2000 BR OVC003 00/00 Q1022

Closest aviation forecast (TAF) to Area Of Fire And Rescue Force Heliport

Closest forecast is Kbely Air Base, 14.0 nm (26.0 km) S. Retrieved 2020/11/28 18:00 UTC (5 hours ago):

TAF LKKB 281700Z 2818/2918 VRB02KT 9999 BKN030 BECMG 2820/2822 OVC020 BECMG 2902/2904 5000 BR SCT008 BKN015 BECMG 2910/2912 32008KT 9999 BKN030